Pagrindinis puslapis
METAR-TAF:

METAR-TAF

Oro uostai :

Rietis, Italija

platuma: 42-25N, ilguma: 012-51E, Aukštis: 389 m

Dabartinis oras

Ataskaita buvo paskelbta 6 valandos ir 39 minutes, ne 16:50 UTC
Vėjas 2 kt nuo kintamojo kryptimis
Temperatūra 7°C
Drėgmė 93%
Slėgis 1019 hPa
Matomumas: 8000 m
Išsisklaidę debesys ne aukštis 3500 ft

METAR: LIQN 271650Z VRB02KT 8000 SCT035 07/06 Q1019

Laikas: 00:29 (23:29 UTC)


TAF: trūkstamas

Orai ataskaitas ir orų prognozės (METAR, TAF).

turimą stotys yra geltonos ir raudonos taškus žemėlapyje.

Perkelti pele per norėdami pamatyti stoties vardą.

Tada spustelėkite, norėdami matyti oro stebėjimo ir prognozės.

Norėdami pakeisti žemėlapį: spustelėkite ant žalios mygtukų su juodo kryžiaus žemyn,; žalią mygtuką su brūkšneliu, jei norite nutolinti; arba žalių rodyklių gretimoms žemėlapius.


METAR-TAF: